createdAt,value
2018-12-14T00:01:44.024Z,90.90
2018-12-14T00:05:48.330Z,90.90
2018-12-14T00:09:52.647Z,90.80
2018-12-14T00:13:56.813Z,90.90
2018-12-14T00:18:01.055Z,90.60
2018-12-14T00:22:07.612Z,90.50
2018-12-14T00:26:11.704Z,90.70
2018-12-14T00:30:15.986Z,90.20
2018-12-14T00:34:20.155Z,90.40
2018-12-14T00:38:24.378Z,90.50
2018-12-14T00:42:28.528Z,90.40
2018-12-14T00:46:34.757Z,90.70
2018-12-14T00:50:38.919Z,90.40
2018-12-14T00:54:43.151Z,90.10
2018-12-14T00:58:47.392Z,90.70
2018-12-14T01:02:51.611Z,90.70
2018-12-14T01:06:55.816Z,90.60
2018-12-14T01:10:59.996Z,90.70
2018-12-14T01:15:04.291Z,90.80
2018-12-14T01:19:08.605Z,91.00
2018-12-14T01:23:12.764Z,90.70
2018-12-14T01:27:17.039Z,90.90
2018-12-14T01:31:21.325Z,91.50
2018-12-14T01:35:25.544Z,91.60
2018-12-14T01:39:29.753Z,91.50
2018-12-14T01:43:33.921Z,91.20
2018-12-14T01:47:38.132Z,91.60
2018-12-14T01:51:42.261Z,91.20
2018-12-14T01:55:46.449Z,91.00
2018-12-14T01:59:50.557Z,90.90
2018-12-14T02:03:54.729Z,90.90
2018-12-14T02:07:58.872Z,91.20
2018-12-14T02:12:03.023Z,91.20
2018-12-14T02:16:07.169Z,91.50
2018-12-14T02:20:11.350Z,91.60
2018-12-14T02:24:15.487Z,91.40
2018-12-14T02:28:19.679Z,91.30
2018-12-14T02:32:23.910Z,91.00
2018-12-14T02:36:28.164Z,90.50
2018-12-14T02:40:32.368Z,90.20
2018-12-14T02:44:36.523Z,90.00
2018-12-14T02:48:40.715Z,90.10
2018-12-14T02:52:44.949Z,90.10
2018-12-14T02:56:49.062Z,90.20
2018-12-14T03:00:53.324Z,90.60
2018-12-14T03:04:57.667Z,90.40
2018-12-14T03:09:01.823Z,90.30
2018-12-14T03:13:06.060Z,90.40
2018-12-14T03:17:10.374Z,90.60
2018-12-14T03:21:14.631Z,90.40
2018-12-14T03:25:18.864Z,90.20
2018-12-14T03:29:23.143Z,90.60
2018-12-14T03:33:27.359Z,90.10
2018-12-14T03:37:32.600Z,89.50
2018-12-14T03:41:36.752Z,89.60
2018-12-14T03:45:41.020Z,90.00
2018-12-14T03:49:45.215Z,90.70
2018-12-14T03:53:49.462Z,90.20
2018-12-14T03:57:54.598Z,90.10
2018-12-14T04:01:58.917Z,90.00
2018-12-14T04:06:03.221Z,90.10
2018-12-14T04:10:07.773Z,90.70
2018-12-14T04:14:12.102Z,90.50
2018-12-14T04:18:16.289Z,90.70
2018-12-14T04:22:20.490Z,90.80
2018-12-14T04:26:24.641Z,91.00
2018-12-14T04:30:28.874Z,91.00
2018-12-14T04:34:33.146Z,91.10
2018-12-14T04:38:37.403Z,90.90
2018-12-14T04:42:48.675Z,91.60
2018-12-14T04:46:47.998Z,91.50
2018-12-14T04:50:52.200Z,91.20
2018-12-14T04:54:56.365Z,91.40
2018-12-14T04:59:00.511Z,91.50
2018-12-14T05:03:04.825Z,91.60
2018-12-14T05:07:08.984Z,92.00
2018-12-14T05:11:13.268Z,91.90
2018-12-14T05:15:17.500Z,92.10
2018-12-14T05:19:21.648Z,92.30
2018-12-14T05:23:25.828Z,92.10
2018-12-14T05:27:29.997Z,92.10
2018-12-14T05:31:34.166Z,91.90
2018-12-14T05:35:38.384Z,92.20
2018-12-14T05:39:42.707Z,92.70
2018-12-14T05:43:46.969Z,92.90
2018-12-14T05:47:51.178Z,92.80
2018-12-14T05:51:55.369Z,93.10
2018-12-14T05:55:59.524Z,92.60
2018-12-14T06:00:03.865Z,92.50
2018-12-14T06:04:08.161Z,92.70
2018-12-14T06:08:12.288Z,92.40
2018-12-14T06:12:16.566Z,92.70
2018-12-14T06:16:24.286Z,92.60
2018-12-14T06:20:28.963Z,92.60
2018-12-14T06:24:33.173Z,92.90
2018-12-14T06:28:37.340Z,93.00
2018-12-14T06:32:41.552Z,93.10
2018-12-14T06:36:49.975Z,93.20
2018-12-14T06:40:54.715Z,93.10
2018-12-14T06:44:59.236Z,93.70
2018-12-14T06:49:03.547Z,93.40
2018-12-14T06:53:08.194Z,93.30
2018-12-14T06:57:12.413Z,92.70
2018-12-14T07:01:16.751Z,92.60
2018-12-14T07:05:21.286Z,92.80
2018-12-14T07:09:26.097Z,92.40
2018-12-14T07:13:34.235Z,91.50
2018-12-14T07:17:38.575Z,91.80
2018-12-14T07:21:42.867Z,91.80
2018-12-14T07:25:47.538Z,91.70
2018-12-14T07:29:51.844Z,91.60
2018-12-14T07:33:56.067Z,91.70
2018-12-14T07:38:00.358Z,91.20
2018-12-14T07:42:04.578Z,90.60
2018-12-14T07:46:08.709Z,90.70
2018-12-14T07:50:13.005Z,90.60
2018-12-14T07:54:17.187Z,91.00
2018-12-14T07:58:21.347Z,90.70
2018-12-14T08:02:25.607Z,90.80
2018-12-14T08:06:29.771Z,90.70
2018-12-14T08:10:34.231Z,90.30
2018-12-14T08:14:39.746Z,90.30
2018-12-14T08:18:44.511Z,90.10
2018-12-14T08:22:48.903Z,90.50
2018-12-14T08:26:53.145Z,88.80
2018-12-14T08:30:57.399Z,88.20
2018-12-14T08:35:01.968Z,87.60
2018-12-14T08:39:07.722Z,87.10
2018-12-14T08:43:12.008Z,86.10
2018-12-14T08:47:16.175Z,85.90
2018-12-14T08:51:20.745Z,86.10
2018-12-14T08:55:24.916Z,87.10
2018-12-14T08:59:29.578Z,86.50
2018-12-14T09:03:33.990Z,83.80
2018-12-14T09:07:38.174Z,84.70
2018-12-14T09:11:42.400Z,83.10
2018-12-14T09:15:46.714Z,81.70
2018-12-14T09:19:51.421Z,81.80
2018-12-14T09:23:55.712Z,82.80
2018-12-14T09:28:00.065Z,83.40
2018-12-14T09:32:04.540Z,83.80
2018-12-14T09:36:08.756Z,83.60
2018-12-14T09:40:13.002Z,83.30
2018-12-14T09:44:17.182Z,85.30
2018-12-14T09:48:21.591Z,86.00
2018-12-14T09:52:25.854Z,87.10
2018-12-14T09:56:30.471Z,86.30
2018-12-14T10:00:34.667Z,86.00
2018-12-14T10:04:38.880Z,87.30
2018-12-14T10:08:43.022Z,86.00
2018-12-14T10:12:47.227Z,87.20
2018-12-14T10:17:11.317Z,85.20
2018-12-14T10:21:15.786Z,86.30
2018-12-14T10:25:21.042Z,87.40
2018-12-14T10:29:25.311Z,86.90
2018-12-14T10:33:30.695Z,87.30
2018-12-14T10:37:34.878Z,87.60
2018-12-14T10:41:39.125Z,87.10
2018-12-14T10:45:43.531Z,87.60
2018-12-14T10:49:47.902Z,87.40
2018-12-14T10:53:52.064Z,86.70
2018-12-14T10:57:56.388Z,87.60
2018-12-14T11:02:00.588Z,89.10
2018-12-14T11:06:04.760Z,88.70
2018-12-14T11:10:09.793Z,88.80
2018-12-14T11:14:14.212Z,88.80
2018-12-14T11:18:18.533Z,88.50
2018-12-14T11:22:22.922Z,88.10
2018-12-14T11:26:27.078Z,86.50
2018-12-14T11:30:31.303Z,88.60
2018-12-14T11:34:35.453Z,90.10
2018-12-14T11:38:39.839Z,90.20
2018-12-14T11:42:44.035Z,89.50
2018-12-14T11:48:12.620Z,90.20
2018-12-14T11:52:16.893Z,90.10
2018-12-14T11:56:21.319Z,90.70
2018-12-14T12:00:25.522Z,89.60
2018-12-14T12:04:29.654Z,89.60
2018-12-14T12:08:33.785Z,90.00
2018-12-14T12:12:38.456Z,90.10
2018-12-14T12:16:42.626Z,90.10
2018-12-14T12:20:46.788Z,90.20
2018-12-14T12:24:50.931Z,89.60
2018-12-14T12:28:55.198Z,88.40
2018-12-14T12:32:59.363Z,89.10
2018-12-14T12:37:03.571Z,90.80
2018-12-14T12:41:07.924Z,90.70
2018-12-14T12:45:13.327Z,90.30
2018-12-14T12:49:17.582Z,90.90
2018-12-14T12:53:22.887Z,91.30
2018-12-14T12:57:27.404Z,91.80
2018-12-14T13:01:31.638Z,91.70
2018-12-14T13:05:36.191Z,91.60
2018-12-14T13:09:40.787Z,91.30
2018-12-14T13:13:45.313Z,91.20
2018-12-14T13:17:49.693Z,90.40
2018-12-14T13:21:54.365Z,90.60
2018-12-14T13:25:58.939Z,91.10
2018-12-14T13:30:03.319Z,89.70
2018-12-14T13:34:09.656Z,89.60
2018-12-14T13:38:17.003Z,89.90
2018-12-14T13:42:32.393Z,90.30
2018-12-14T13:46:39.436Z,91.30
2018-12-14T13:50:48.049Z,91.10
2018-12-14T13:54:56.040Z,92.10
2018-12-14T13:59:02.480Z,91.20
2018-12-14T14:03:08.557Z,92.00
2018-12-14T14:07:15.344Z,91.50
2018-12-14T14:11:20.904Z,91.30
2018-12-14T14:15:27.697Z,92.00
2018-12-14T14:19:34.396Z,90.70
2018-12-14T14:23:39.807Z,91.20
2018-12-14T14:27:47.275Z,91.30
2018-12-14T14:31:53.999Z,91.90
2018-12-14T14:36:00.535Z,92.60
2018-12-14T14:40:06.149Z,93.00
2018-12-14T14:44:12.121Z,94.10
2018-12-14T14:48:16.269Z,94.50
2018-12-14T14:52:20.469Z,95.20
2018-12-14T14:56:25.283Z,95.30
2018-12-14T15:00:32.224Z,95.50
2018-12-14T15:04:36.579Z,95.90
2018-12-14T15:08:40.749Z,95.30
2018-12-14T15:12:45.171Z,94.80
2018-12-14T15:16:49.324Z,95.10
2018-12-14T15:20:53.535Z,95.10
2018-12-14T15:24:59.613Z,96.30
2018-12-14T15:29:06.193Z,96.50
2018-12-14T15:33:10.452Z,97.00
2018-12-14T15:37:14.608Z,97.80
2018-12-14T15:41:18.821Z,99.00
2018-12-14T15:45:23.483Z,99.90
2018-12-14T15:49:27.922Z,99.90
2018-12-14T15:53:32.148Z,99.90
2018-12-14T15:57:36.984Z,99.90
2018-12-14T16:01:41.150Z,99.90
2018-12-14T16:05:46.399Z,99.90
2018-12-14T16:09:50.706Z,99.30
2018-12-14T16:13:55.058Z,99.00
2018-12-14T16:17:59.691Z,99.30
2018-12-14T16:22:04.496Z,99.70
2018-12-14T16:26:09.258Z,99.90
2018-12-14T16:30:13.763Z,99.90
2018-12-14T16:34:18.132Z,99.90
2018-12-14T16:38:22.369Z,99.90
2018-12-14T16:42:26.634Z,99.90
2018-12-14T16:46:30.810Z,99.90
2018-12-14T16:50:35.291Z,99.90
2018-12-14T16:54:39.531Z,99.90
2018-12-14T16:58:43.750Z,99.90
2018-12-14T17:02:47.924Z,99.90
2018-12-14T17:06:52.183Z,99.90
2018-12-14T17:10:57.286Z,99.90
2018-12-14T17:15:01.453Z,99.90
2018-12-14T17:19:05.633Z,99.90
2018-12-14T17:23:09.887Z,99.90
2018-12-14T17:27:14.068Z,99.90
2018-12-14T17:31:18.238Z,99.90
2018-12-14T17:35:22.415Z,99.90
2018-12-14T17:39:26.796Z,99.90
2018-12-14T17:43:30.998Z,99.90
2018-12-14T17:47:35.431Z,99.90
2018-12-14T17:51:40.127Z,99.90
2018-12-14T17:55:44.325Z,99.90
2018-12-14T17:59:48.916Z,99.90
2018-12-14T18:03:53.087Z,99.90
2018-12-14T18:07:57.472Z,99.90
2018-12-14T18:12:01.866Z,98.50
2018-12-14T18:16:06.600Z,99.00
2018-12-14T18:20:10.973Z,99.20
2018-12-14T18:24:15.849Z,99.80
2018-12-14T18:28:20.243Z,99.80
2018-12-14T18:32:24.795Z,99.90
2018-12-14T18:36:29.324Z,99.90
2018-12-14T18:40:35.060Z,99.90
2018-12-14T18:44:39.627Z,99.90
2018-12-14T18:48:44.312Z,99.90
2018-12-14T18:52:49.461Z,99.90
2018-12-14T18:56:54.912Z,99.90
2018-12-14T19:01:00.542Z,99.90
2018-12-14T19:05:05.733Z,99.90
2018-12-14T19:09:11.227Z,99.90
2018-12-14T19:13:16.925Z,99.90
2018-12-14T19:17:21.095Z,99.90
2018-12-14T19:21:25.331Z,99.90
2018-12-14T19:25:30.062Z,99.90
2018-12-14T19:29:34.340Z,99.90
2018-12-14T19:33:38.464Z,99.90
2018-12-14T19:37:43.084Z,99.90
2018-12-14T19:41:48.827Z,99.90
2018-12-14T19:45:53.076Z,99.90
2018-12-14T19:49:58.038Z,99.90
2018-12-14T19:54:02.360Z,99.90
2018-12-14T19:58:06.657Z,99.90
2018-12-14T20:02:11.068Z,99.90
2018-12-14T20:06:15.746Z,99.90
2018-12-14T20:10:21.371Z,99.90
2018-12-14T20:14:28.991Z,99.90
2018-12-14T20:18:34.720Z,99.90
2018-12-14T20:22:39.326Z,99.90
2018-12-14T20:26:44.700Z,99.90
2018-12-14T20:30:49.077Z,99.90
2018-12-14T20:34:54.592Z,99.90
2018-12-14T20:39:00.803Z,99.90
2018-12-14T20:43:05.814Z,99.90
2018-12-14T20:47:10.083Z,99.90
2018-12-14T20:51:14.345Z,99.90
2018-12-14T20:55:18.609Z,99.90
2018-12-14T20:59:22.771Z,99.90
2018-12-14T21:03:27.405Z,99.90
2018-12-14T21:07:31.950Z,99.90
2018-12-14T21:11:36.255Z,99.90
2018-12-14T21:15:40.411Z,99.90
2018-12-14T21:19:44.569Z,99.90
2018-12-14T21:23:48.751Z,99.90
2018-12-14T21:27:52.936Z,99.90
2018-12-14T21:31:57.174Z,99.90
2018-12-14T21:36:01.348Z,99.90
2018-12-14T21:40:06.650Z,99.90
2018-12-14T21:44:10.850Z,99.90
2018-12-14T21:48:15.021Z,99.90
2018-12-14T21:52:21.276Z,99.90
2018-12-14T21:56:25.467Z,99.90
2018-12-14T22:00:29.793Z,99.90
2018-12-14T22:04:34.013Z,99.90
2018-12-14T22:08:38.175Z,99.90
2018-12-14T22:12:42.343Z,99.90
2018-12-14T22:16:46.503Z,99.90
2018-12-14T22:20:51.914Z,99.90
2018-12-14T22:24:56.298Z,99.90
2018-12-14T22:29:00.461Z,99.90
2018-12-14T22:33:04.811Z,99.90
2018-12-14T22:37:09.059Z,99.90
2018-12-14T22:41:13.218Z,99.90
2018-12-14T22:45:17.443Z,99.90
2018-12-14T22:49:21.590Z,99.90
2018-12-14T22:53:25.807Z,99.90
2018-12-14T22:57:29.963Z,99.90
2018-12-14T23:01:34.231Z,99.90
2018-12-14T23:05:38.373Z,99.90
2018-12-14T23:09:42.647Z,99.90
2018-12-14T23:13:46.796Z,99.90
2018-12-14T23:17:50.926Z,99.90
2018-12-14T23:21:57.275Z,99.90
2018-12-14T23:26:01.488Z,99.90
2018-12-14T23:30:08.334Z,99.90
2018-12-14T23:34:12.467Z,99.90
2018-12-14T23:38:16.706Z,99.90
2018-12-14T23:42:20.924Z,99.90
2018-12-14T23:46:25.152Z,99.90
2018-12-14T23:50:29.292Z,99.90
2018-12-14T23:54:33.530Z,99.90
2018-12-14T23:58:37.663Z,99.90
